createdAt,value
2022-09-04T00:00:52.152Z,5.37
2022-09-04T00:03:32.009Z,4.47
2022-09-04T00:06:03.040Z,4.53
2022-09-04T00:08:41.209Z,4.27
2022-09-04T00:11:13.397Z,4.60
2022-09-04T00:13:45.612Z,10.00
2022-09-04T00:16:17.768Z,4.93
2022-09-04T00:18:49.129Z,4.70
2022-09-04T00:21:21.477Z,6.73
2022-09-04T00:23:52.991Z,5.37
2022-09-04T00:26:30.868Z,7.40
2022-09-04T00:29:04.175Z,11.73
2022-09-04T00:31:36.689Z,10.70
2022-09-04T00:34:10.368Z,13.90
2022-09-04T00:36:49.471Z,13.80
2022-09-04T00:39:21.347Z,12.97
2022-09-04T00:41:59.634Z,14.63
2022-09-04T00:44:36.814Z,12.13
2022-09-04T00:47:22.111Z,11.30
2022-09-04T00:50:07.241Z,14.43
2022-09-04T00:52:46.898Z,19.73
2022-09-04T00:55:29.275Z,22.80
2022-09-04T00:58:08.501Z,9.80
2022-09-04T01:00:38.040Z,9.47
2022-09-04T01:03:27.608Z,8.33
2022-09-04T01:06:08.869Z,8.83
2022-09-04T01:08:46.111Z,8.50
2022-09-04T01:11:15.994Z,10.17
2022-09-04T01:13:45.801Z,9.97
2022-09-04T01:16:21.132Z,10.23
2022-09-04T01:18:56.035Z,11.10
2022-09-04T01:21:48.246Z,9.97
2022-09-04T01:24:39.749Z,9.97
2022-09-04T01:27:10.484Z,10.40
2022-09-04T01:29:46.560Z,10.40
2022-09-04T01:32:19.728Z,11.10
2022-09-04T01:34:53.980Z,11.40
2022-09-04T01:37:31.512Z,10.83
2022-09-04T01:40:06.868Z,10.90
2022-09-04T01:42:41.756Z,10.80
2022-09-04T01:45:10.936Z,11.33
2022-09-04T01:47:43.962Z,9.80
2022-09-04T01:50:15.118Z,10.90
2022-09-04T01:52:48.038Z,13.47
2022-09-04T01:55:24.028Z,11.90
2022-09-04T01:58:02.604Z,14.37
2022-09-04T02:00:34.028Z,15.37
2022-09-04T02:03:04.248Z,12.23
2022-09-04T02:05:40.230Z,11.97
2022-09-04T02:08:19.825Z,17.50
2022-09-04T02:10:52.576Z,12.27
2022-09-04T02:13:24.427Z,13.13
2022-09-04T02:16:00.707Z,15.37
2022-09-04T02:18:38.239Z,11.80
2022-09-04T02:21:10.270Z,11.27
2022-09-04T02:23:41.890Z,12.77
2022-09-04T02:26:15.215Z,11.30
2022-09-04T02:28:51.530Z,10.10
2022-09-04T02:31:29.227Z,10.43
2022-09-04T02:34:02.673Z,11.27
2022-09-04T02:36:33.741Z,10.57
2022-09-04T02:39:06.860Z,12.07
2022-09-04T02:41:39.802Z,10.57
2022-09-04T02:44:21.019Z,10.10
2022-09-04T02:46:56.976Z,9.77
2022-09-04T02:49:32.196Z,11.13
2022-09-04T02:52:08.206Z,11.17
2022-09-04T02:54:53.960Z,9.47
2022-09-04T02:57:29.692Z,9.50
2022-09-04T03:00:07.413Z,10.37
2022-09-04T03:02:39.548Z,9.97
2022-09-04T03:05:15.069Z,9.97
2022-09-04T03:07:46.873Z,10.70
2022-09-04T03:10:18.231Z,10.40
2022-09-04T03:12:48.893Z,13.70
2022-09-04T03:15:23.391Z,11.10
2022-09-04T03:17:58.776Z,11.73
2022-09-04T03:20:32.836Z,12.00
2022-09-04T03:23:05.132Z,13.70
2022-09-04T03:25:45.309Z,12.83
2022-09-04T03:28:20.363Z,16.00
2022-09-04T03:30:50.723Z,12.87
2022-09-04T03:33:23.211Z,16.07
2022-09-04T03:35:56.279Z,12.60
2022-09-04T03:38:29.493Z,12.67
2022-09-04T03:41:06.263Z,11.97
2022-09-04T03:43:54.436Z,12.50
2022-09-04T03:46:32.301Z,26.07
2022-09-04T03:49:10.434Z,13.00
2022-09-04T03:51:45.774Z,11.47
2022-09-04T03:54:28.705Z,13.93
2022-09-04T03:57:08.875Z,13.77
2022-09-04T03:59:47.644Z,13.03
2022-09-04T04:02:23.678Z,16.00
2022-09-04T04:05:14.573Z,13.33
2022-09-04T04:07:46.966Z,37.10
2022-09-04T04:10:25.668Z,14.63
2022-09-04T04:13:17.991Z,14.63
2022-09-04T04:15:53.610Z,14.80
2022-09-04T04:18:54.066Z,18.27
2022-09-04T04:21:32.480Z,13.67
2022-09-04T04:24:15.185Z,14.40
2022-09-04T04:26:54.968Z,16.80
2022-09-04T04:29:45.093Z,12.83
2022-09-04T04:32:27.974Z,14.57
2022-09-04T04:35:11.283Z,15.20
2022-09-04T04:37:51.635Z,14.00
2022-09-04T04:40:26.091Z,16.93
2022-09-04T04:43:01.159Z,17.17
2022-09-04T04:45:50.291Z,15.93
2022-09-04T04:48:36.655Z,15.83
2022-09-04T04:51:13.661Z,15.70
2022-09-04T04:53:47.969Z,17.17
2022-09-04T04:56:20.074Z,19.13
2022-09-04T04:58:59.272Z,19.83
2022-09-04T05:01:36.484Z,15.63
2022-09-04T05:04:12.173Z,16.87
2022-09-04T05:06:45.977Z,17.43
2022-09-04T05:09:19.072Z,17.23
2022-09-04T05:11:53.861Z,16.60
2022-09-04T05:14:30.111Z,19.43
2022-09-04T05:17:05.609Z,20.37
2022-09-04T05:19:37.237Z,19.93
2022-09-04T05:22:13.366Z,17.83
2022-09-04T05:24:50.176Z,15.40
2022-09-04T05:27:43.403Z,14.50
2022-09-04T05:30:15.735Z,16.63
2022-09-04T05:32:52.820Z,15.70
2022-09-04T05:35:31.870Z,14.73
2022-09-04T05:38:09.733Z,16.67
2022-09-04T05:40:49.816Z,15.63
2022-09-04T05:43:26.679Z,14.13
2022-09-04T05:46:03.193Z,14.33
2022-09-04T05:48:39.174Z,16.20
2022-09-04T05:51:26.658Z,16.47
2022-09-04T05:54:10.482Z,16.37
2022-09-04T05:56:51.149Z,16.17
2022-09-04T05:59:51.522Z,19.30
2022-09-04T06:02:41.532Z,19.83
2022-09-04T06:05:22.432Z,18.50
2022-09-04T06:07:56.375Z,18.70
2022-09-04T06:10:32.719Z,19.13
2022-09-04T06:13:25.310Z,19.47
2022-09-04T06:16:08.165Z,20.57
2022-09-04T06:18:46.840Z,18.67
2022-09-04T06:21:38.344Z,19.10
2022-09-04T06:24:29.803Z,20.33
2022-09-04T06:27:29.055Z,20.23
2022-09-04T06:30:06.291Z,21.20
2022-09-04T06:32:59.621Z,15.60
2022-09-04T06:35:48.292Z,18.43
2022-09-04T06:38:27.642Z,15.50
2022-09-04T06:41:03.333Z,17.33
2022-09-04T06:43:38.133Z,17.80
2022-09-04T06:46:16.718Z,18.37
2022-09-04T06:48:53.548Z,16.57
2022-09-04T06:51:32.666Z,15.87
2022-09-04T06:54:07.852Z,15.57
2022-09-04T06:56:46.539Z,15.37
2022-09-04T06:59:27.918Z,14.43
2022-09-04T07:02:08.099Z,15.10
2022-09-04T07:04:45.741Z,15.20
2022-09-04T07:07:22.017Z,14.37
2022-09-04T07:09:52.927Z,13.57
2022-09-04T07:12:43.078Z,11.47
2022-09-04T07:15:35.021Z,11.07
2022-09-04T07:18:10.696Z,10.83
2022-09-04T07:20:42.595Z,10.83
2022-09-04T07:23:22.594Z,12.00
2022-09-04T07:26:00.616Z,11.00
2022-09-04T07:28:35.788Z,11.67
2022-09-04T07:31:06.891Z,13.07
2022-09-04T07:33:39.520Z,13.67
2022-09-04T07:36:11.312Z,12.63
2022-09-04T07:38:44.252Z,12.73
2022-09-04T07:41:23.820Z,12.73
2022-09-04T07:43:56.934Z,13.67
2022-09-04T07:46:33.297Z,12.30
2022-09-04T07:49:09.517Z,12.30
2022-09-04T07:51:42.656Z,12.10
2022-09-04T07:54:31.081Z,12.57
2022-09-04T07:57:09.718Z,14.40
2022-09-04T07:59:59.168Z,13.57
2022-09-04T08:02:40.085Z,14.33
2022-09-04T08:05:24.001Z,14.33
2022-09-04T08:08:10.570Z,13.83
2022-09-04T08:10:40.303Z,14.50
2022-09-04T08:13:14.075Z,14.10
2022-09-04T08:15:49.232Z,13.13
2022-09-04T08:18:29.838Z,11.77
2022-09-04T08:21:10.617Z,12.07
2022-09-04T08:23:49.333Z,13.93
2022-09-04T08:26:21.154Z,12.70
2022-09-04T08:29:03.057Z,12.30
2022-09-04T08:31:32.098Z,11.27
2022-09-04T08:34:25.432Z,10.53
2022-09-04T08:36:58.689Z,9.87
2022-09-04T08:39:31.663Z,10.13
2022-09-04T08:42:26.914Z,11.40
2022-09-04T08:45:25.636Z,9.37
2022-09-04T08:48:41.740Z,9.63
2022-09-04T08:51:44.740Z,10.23
2022-09-04T08:54:37.060Z,9.87
2022-09-04T08:57:23.906Z,9.93
2022-09-04T09:00:06.593Z,9.43
2022-09-04T09:03:10.882Z,10.27
2022-09-04T09:06:02.021Z,10.30
2022-09-04T09:08:45.589Z,10.10
2022-09-04T09:11:24.437Z,10.27
2022-09-04T09:14:27.593Z,11.27
2022-09-04T09:17:12.425Z,11.23
2022-09-04T09:19:55.650Z,12.10
2022-09-04T09:22:47.464Z,12.57
2022-09-04T09:25:21.533Z,12.23
2022-09-04T09:28:23.322Z,12.17
2022-09-04T09:31:26.948Z,12.40
2022-09-04T09:34:37.967Z,12.37
2022-09-04T09:37:31.255Z,16.83
2022-09-04T09:40:32.747Z,12.60
2022-09-04T09:43:18.967Z,11.97
2022-09-04T09:46:24.221Z,11.03
2022-09-04T09:49:36.546Z,10.47
2022-09-04T09:52:22.511Z,11.70
2022-09-04T09:55:04.454Z,10.73
2022-09-04T09:58:02.178Z,10.80
2022-09-04T10:00:36.663Z,10.77
2022-09-04T10:03:25.561Z,10.10
2022-09-04T10:06:28.421Z,9.70
2022-09-04T10:09:32.555Z,9.53
2022-09-04T10:12:34.704Z,10.03
2022-09-04T10:15:29.504Z,9.77
2022-09-04T10:18:38.685Z,10.33
2022-09-04T10:21:30.897Z,10.20
2022-09-04T10:24:22.856Z,9.37
2022-09-04T10:27:28.800Z,9.03
2022-09-04T10:30:06.805Z,9.63
2022-09-04T10:33:12.398Z,9.63
2022-09-04T10:35:59.026Z,9.07
2022-09-04T10:38:58.732Z,9.43
2022-09-04T10:41:39.960Z,12.40
2022-09-04T10:44:36.208Z,8.87
2022-09-04T10:47:13.213Z,8.90
2022-09-04T10:50:01.700Z,7.27
2022-09-04T10:53:01.153Z,7.17
2022-09-04T10:55:42.431Z,7.33
2022-09-04T10:58:36.175Z,7.47
2022-09-04T11:01:35.058Z,9.77
2022-09-04T11:04:27.126Z,6.67
2022-09-04T11:07:10.451Z,6.03
2022-09-04T11:09:48.057Z,7.47
2022-09-04T11:12:33.276Z,5.97
2022-09-04T11:15:32.602Z,6.43
2022-09-04T11:18:23.203Z,5.17
2022-09-04T11:21:09.488Z,6.27
2022-09-04T11:24:04.051Z,5.70
2022-09-04T11:27:06.010Z,6.27
2022-09-04T11:29:44.090Z,5.33
2022-09-04T11:32:21.866Z,6.77
2022-09-04T11:35:13.831Z,5.77
2022-09-04T11:37:59.922Z,4.67
2022-09-04T11:41:04.689Z,6.43
2022-09-04T11:43:59.352Z,4.93
2022-09-04T11:46:44.194Z,4.50
2022-09-04T11:49:38.860Z,5.13
2022-09-04T11:52:16.252Z,3.20
2022-09-04T11:55:06.560Z,3.90
2022-09-04T11:57:45.296Z,4.00
2022-09-04T12:00:15.098Z,4.30
2022-09-04T12:02:58.613Z,3.87
2022-09-04T12:05:40.339Z,4.33
2022-09-04T12:08:24.156Z,4.37
2022-09-04T12:11:00.696Z,3.05
2022-09-04T12:13:53.218Z,3.22
2022-09-04T12:16:48.178Z,3.28
2022-09-04T12:19:56.077Z,2.70
2022-09-04T12:22:52.282Z,3.70
2022-09-04T12:25:51.019Z,2.92
2022-09-04T12:28:41.476Z,4.03
2022-09-04T12:31:39.245Z,2.50
2022-09-04T12:34:34.114Z,3.03
2022-09-04T12:37:37.684Z,2.33
2022-09-04T12:40:32.703Z,2.10
2022-09-04T12:43:16.329Z,3.90
2022-09-04T12:45:47.759Z,3.35
2022-09-04T12:48:24.076Z,3.30
2022-09-04T12:50:55.911Z,1.75
2022-09-04T12:53:57.386Z,1.35
2022-09-04T12:56:35.673Z,3.20
2022-09-04T12:59:16.182Z,1.88
2022-09-04T13:01:54.278Z,2.15
2022-09-04T13:04:32.474Z,2.10
2022-09-04T13:07:16.336Z,1.50
2022-09-04T13:09:53.954Z,1.88
2022-09-04T13:12:26.601Z,1.38
2022-09-04T13:15:07.718Z,1.52
2022-09-04T13:17:43.545Z,1.55
2022-09-04T13:20:20.840Z,1.38
2022-09-04T13:23:01.250Z,2.78
2022-09-04T13:25:37.290Z,2.28
2022-09-04T13:28:16.982Z,1.95
2022-09-04T13:30:49.736Z,1.98
2022-09-04T13:33:39.636Z,2.85
2022-09-04T13:36:19.903Z,1.85
2022-09-04T13:39:22.181Z,1.77
2022-09-04T13:42:01.747Z,1.83
2022-09-04T13:44:59.338Z,1.95
2022-09-04T13:47:33.069Z,1.40
2022-09-04T13:50:08.519Z,1.60
2022-09-04T13:52:40.318Z,1.85
2022-09-04T13:55:12.727Z,2.75
2022-09-04T13:57:43.776Z,3.75
2022-09-04T14:00:13.137Z,3.67
2022-09-04T14:02:41.912Z,1.70
2022-09-04T14:05:13.195Z,1.80
2022-09-04T14:07:45.237Z,3.22
2022-09-04T14:10:15.600Z,2.22
2022-09-04T14:12:54.405Z,4.13
2022-09-04T14:15:32.775Z,2.20
2022-09-04T14:18:21.200Z,1.80
2022-09-04T14:20:57.907Z,1.60
2022-09-04T14:23:40.726Z,1.80
2022-09-04T14:26:15.389Z,2.42
2022-09-04T14:28:48.574Z,1.60
2022-09-04T14:31:22.663Z,3.25
2022-09-04T14:33:57.553Z,1.67
2022-09-04T14:36:35.429Z,4.53
2022-09-04T14:39:18.153Z,3.75
2022-09-04T14:41:55.429Z,2.00
2022-09-04T14:44:35.682Z,1.85
2022-09-04T14:47:09.627Z,2.55
2022-09-04T14:49:42.250Z,2.30
2022-09-04T14:52:18.370Z,1.83
2022-09-04T14:54:48.262Z,4.03
2022-09-04T14:57:19.542Z,3.22
2022-09-04T14:59:51.605Z,5.95
2022-09-04T15:02:24.224Z,3.00
2022-09-04T15:04:56.391Z,2.47
2022-09-04T15:07:49.157Z,3.28
2022-09-04T15:10:24.460Z,4.20
2022-09-04T15:12:56.928Z,2.55
2022-09-04T15:15:31.594Z,1.80
2022-09-04T15:18:06.604Z,3.58
2022-09-04T15:20:40.416Z,2.65
2022-09-04T15:23:14.151Z,1.75
2022-09-04T15:25:59.769Z,3.33
2022-09-04T15:28:30.567Z,3.17
2022-09-04T15:31:15.537Z,1.92
2022-09-04T15:33:44.349Z,2.58
2022-09-04T15:36:18.187Z,1.73
2022-09-04T15:38:51.827Z,4.30
2022-09-04T15:41:25.863Z,2.13
2022-09-04T15:43:56.651Z,2.90
2022-09-04T15:46:29.616Z,5.47
2022-09-04T15:49:04.210Z,2.38
2022-09-04T15:51:40.346Z,2.17
2022-09-04T15:54:18.400Z,1.77
2022-09-04T15:56:55.643Z,2.35
2022-09-04T15:59:25.998Z,3.45
2022-09-04T16:02:01.837Z,1.60
2022-09-04T16:04:34.195Z,3.20
2022-09-04T16:07:32.881Z,2.50
2022-09-04T16:10:05.894Z,1.60
2022-09-04T16:12:37.791Z,1.83
2022-09-04T16:15:09.120Z,2.33
2022-09-04T16:17:43.354Z,3.90
2022-09-04T16:20:18.357Z,3.00
2022-09-04T16:22:49.366Z,1.55
2022-09-04T16:25:27.279Z,2.55
2022-09-04T16:27:59.540Z,1.92
2022-09-04T16:30:32.963Z,2.05
2022-09-04T16:33:01.280Z,5.05
2022-09-04T16:35:33.045Z,1.63
2022-09-04T16:38:07.961Z,1.77
2022-09-04T16:40:39.033Z,1.77
2022-09-04T16:43:19.559Z,1.60
2022-09-04T16:45:49.852Z,1.50
2022-09-04T16:48:34.596Z,2.47
2022-09-04T16:51:09.825Z,1.85
2022-09-04T16:54:05.199Z,2.20
2022-09-04T16:56:39.691Z,6.28
2022-09-04T16:59:20.213Z,2.65
2022-09-04T17:01:57.657Z,2.47
2022-09-04T17:04:30.988Z,1.95
2022-09-04T17:07:04.254Z,1.60
2022-09-04T17:09:42.559Z,2.65
2022-09-04T17:12:26.098Z,2.03
2022-09-04T17:14:58.954Z,3.13
2022-09-04T17:17:31.173Z,1.80
2022-09-04T17:20:09.669Z,1.63
2022-09-04T17:27:47.887Z,2.00
2022-09-04T17:29:09.736Z,2.00
2022-09-04T17:29:12.103Z,2.60
2022-09-04T17:31:36.076Z,1.58
2022-09-04T17:40:36.139Z,1.58
2022-09-04T17:40:40.545Z,2.70
2022-09-04T17:40:54.115Z,2.75
2022-09-04T17:42:57.051Z,1.90
2022-09-04T17:45:34.849Z,3.05
2022-09-04T17:48:10.488Z,3.50
2022-09-04T17:50:49.185Z,2.03
2022-09-04T17:53:33.544Z,1.70
2022-09-04T17:56:09.089Z,2.00
2022-09-04T17:58:39.276Z,2.00
2022-09-04T18:01:14.617Z,1.60
2022-09-04T18:04:02.794Z,2.13
2022-09-04T18:06:50.924Z,2.77
2022-09-04T18:09:26.997Z,3.20
2022-09-04T18:12:04.224Z,2.43
2022-09-04T18:14:35.247Z,3.23
2022-09-04T18:17:12.780Z,2.23
2022-09-04T18:19:45.913Z,2.00
2022-09-04T18:22:33.658Z,1.73
2022-09-04T18:25:16.176Z,2.20
2022-09-04T18:28:06.185Z,3.13
2022-09-04T18:37:06.288Z,1.90
2022-09-04T18:37:22.643Z,3.17
2022-09-04T18:37:26.030Z,1.73
2022-09-04T18:39:32.318Z,2.47
2022-09-04T18:46:06.541Z,2.60
2022-09-04T18:50:32.002Z,2.83
2022-09-04T18:50:35.602Z,3.63
2022-09-04T18:51:20.218Z,1.70
2022-09-04T18:53:53.676Z,2.20
2022-09-04T18:56:26.462Z,2.20
2022-09-04T18:59:05.517Z,3.97
2022-09-04T19:01:41.500Z,2.10
2022-09-04T19:04:41.473Z,2.40
2022-09-04T19:07:11.336Z,2.13
2022-09-04T19:10:02.551Z,2.93
2022-09-04T19:12:46.908Z,1.53
2022-09-04T19:15:36.943Z,2.47
2022-09-04T19:18:15.140Z,1.80
2022-09-04T19:20:47.457Z,1.67
2022-09-04T19:23:23.289Z,3.43
2022-09-04T19:25:55.197Z,1.83
2022-09-04T19:28:29.472Z,2.30
2022-09-04T19:31:07.992Z,1.70
2022-09-04T19:33:44.794Z,1.73
2022-09-04T19:36:22.920Z,1.70
2022-09-04T19:44:50.336Z,1.53
2022-09-04T19:46:03.818Z,1.80
2022-09-04T19:46:09.184Z,2.53
2022-09-04T19:47:52.899Z,2.33
2022-09-04T19:53:22.273Z,2.17
2022-09-04T19:53:37.828Z,2.03
2022-09-04T19:56:10.544Z,2.07
2022-09-04T19:58:44.043Z,2.00
2022-09-04T20:01:16.120Z,2.10
2022-09-04T20:03:48.841Z,1.43
2022-09-04T20:06:23.136Z,3.73
2022-09-04T20:08:54.370Z,2.20
2022-09-04T20:11:34.513Z,3.67
2022-09-04T20:14:14.502Z,2.00
2022-09-04T20:16:49.375Z,1.77
2022-09-04T20:19:28.347Z,2.73
2022-09-04T20:21:59.502Z,2.00
2022-09-04T20:24:33.379Z,2.27
2022-09-04T20:27:07.206Z,2.53
2022-09-04T20:29:39.126Z,1.97
2022-09-04T20:32:10.326Z,2.37
2022-09-04T20:34:44.184Z,2.67
2022-09-04T20:37:27.775Z,1.80
2022-09-04T20:40:04.104Z,2.30
2022-09-04T20:42:36.398Z,2.03
2022-09-04T20:52:40.433Z,2.10
2022-09-04T20:52:45.459Z,1.80
2022-09-04T20:52:49.296Z,4.53
2022-09-04T20:53:47.672Z,2.87
2022-09-04T20:56:34.748Z,1.83
2022-09-04T21:03:10.904Z,2.07
2022-09-04T21:03:21.498Z,2.40
2022-09-04T21:05:23.447Z,2.00
2022-09-04T21:07:55.184Z,1.93
2022-09-04T21:10:27.112Z,1.97
2022-09-04T21:13:10.860Z,2.13
2022-09-04T21:15:46.487Z,1.87
2022-09-04T21:18:34.352Z,2.70
2022-09-04T21:21:13.029Z,2.27
2022-09-04T21:24:03.656Z,4.27
2022-09-04T21:26:49.895Z,1.83
2022-09-04T21:29:29.778Z,2.37
2022-09-04T21:32:31.180Z,2.03
2022-09-04T21:35:08.355Z,1.77
2022-09-04T21:37:42.237Z,2.17
2022-09-04T21:41:01.023Z,2.27
2022-09-04T21:43:54.366Z,1.87
2022-09-04T21:46:34.397Z,2.23
2022-09-04T21:49:10.097Z,3.90
2022-09-04T21:51:48.869Z,3.10
2022-09-04T21:56:53.433Z,2.30
2022-09-04T22:02:31.672Z,2.57
2022-09-04T22:02:39.063Z,3.27
2022-09-04T22:03:31.732Z,4.47
2022-09-04T22:06:09.171Z,2.37
2022-09-04T22:13:29.413Z,1.87
2022-09-04T22:13:41.779Z,2.60
2022-09-04T22:14:37.217Z,3.93
2022-09-04T22:17:08.034Z,3.10
2022-09-04T22:19:59.707Z,2.77
2022-09-04T22:23:03.401Z,3.60
2022-09-04T22:25:46.592Z,2.47
2022-09-04T22:28:49.998Z,4.53
2022-09-04T22:31:47.465Z,2.57
2022-09-04T22:34:54.590Z,3.50
2022-09-04T22:38:12.727Z,2.83
2022-09-04T22:40:56.925Z,2.40
2022-09-04T22:43:26.822Z,3.63
2022-09-04T22:46:31.406Z,2.53
2022-09-04T22:49:43.002Z,2.80
2022-09-04T22:52:38.716Z,3.90
2022-09-04T22:55:39.125Z,2.20
2022-09-04T22:58:47.058Z,2.80
2022-09-04T23:01:25.590Z,2.70
2022-09-04T23:04:04.822Z,4.90
2022-09-04T23:09:34.182Z,3.00
2022-09-04T23:13:52.186Z,5.27
2022-09-04T23:13:56.231Z,2.53
2022-09-04T23:16:13.446Z,2.80
2022-09-04T23:20:57.498Z,2.93
2022-09-04T23:26:49.022Z,2.40
2022-09-04T23:26:58.361Z,2.10
2022-09-04T23:27:57.349Z,2.50
2022-09-04T23:30:27.089Z,2.67
2022-09-04T23:33:28.424Z,3.50
2022-09-04T23:36:03.161Z,2.77
2022-09-04T23:39:23.994Z,2.47
2022-09-04T23:42:02.366Z,3.90
2022-09-04T23:44:55.515Z,3.03
2022-09-04T23:47:55.331Z,2.30
2022-09-04T23:50:32.006Z,3.03
2022-09-04T23:53:06.738Z,3.17
2022-09-04T23:55:49.329Z,3.30
2022-09-04T23:58:52.180Z,2.73
